Welcome to Des Moines Iowa Weather. I am an independent private personal weather station on the Northwest Side of Des Moines, Iowa. Just East of Windsor Heights and just West of Glendale . This site is also mobile friendly.

There are no active watches, warnings or advisories


Visit our other weather sites:

Historical Data

Weather Station Setup



Weather Underground History page Text

Daily Summary for January 4, 2018 Units:  English    Metric   Both
« Previous Day
Next Day »
Daily Weekly Monthly Yearly Custom
  High: Low: Average:
Temperature: 11.8 °F -4.6 °F 4.3 °F
Dew Point: 3.0 °F -9.0 °F -2.4 °F
Humidity: 84 % 62 % 74 %
Wind Speed: 3.0 mph 0.0 mph 0.2 mph
Wind Gust: 5.0 mph - -
Wind:- - West
Pressure: 30.51 in 30.41 in -
Precipitation: 0.00 in    
Historical Graphs
 
 
Tabular Data for January 4, 2018
Time Temperature Dew Point Pressure Wind Wind Speed Wind Gust Humidity Rainfall Rate (Hourly)
00:11 -1.9 °F -7.0 °F 30.45 in Calm     79 % 0.00 in
00:26 -2.3 °F -7.0 °F 30.45 in Calm   1.0 mph 80 % 0.00 in
00:41 -2.8 °F -8.0 °F 30.46 in Calm     80 % 0.00 in
00:56 -3.1 °F -8.0 °F 30.46 in Calm     80 % 0.00 in
01:11 -3.5 °F -8.0 °F 30.47 in Calm     80 % 0.00 in
01:26 -3.8 °F -9.0 °F 30.46 in Calm     80 % 0.00 in
01:41 -4.1 °F -9.0 °F 30.46 in Calm     81 % 0.00 in
01:56 -4.4 °F -9.0 °F 30.47 in Calm     81 % 0.00 in
02:11 -4.5 °F -9.0 °F 30.47 in Calm   1.0 mph 81 % 0.00 in
02:26 -4.5 °F -9.0 °F 30.47 in WNW 1.0 mph 1.0 mph 82 % 0.00 in
02:41 -4.5 °F -9.0 °F 30.47 in Calm   2.0 mph 82 % 0.00 in
02:56 -4.4 °F -9.0 °F 30.47 in Calm   2.0 mph 82 % 0.00 in
03:11 -4.5 °F -9.0 °F 30.47 in Calm     82 % 0.00 in
03:26 -4.5 °F -9.0 °F 30.47 in Calm     82 % 0.00 in
03:42 -4.5 °F -8.0 °F 30.47 in Calm   3.0 mph 83 % 0.00 in
03:57 -4.5 °F -8.0 °F 30.47 in Calm   1.0 mph 83 % 0.00 in
04:12 -4.6 °F -9.0 °F 30.46 in Calm   1.0 mph 83 % 0.00 in
04:27 -4.5 °F -8.0 °F 30.46 in Calm   2.0 mph 83 % 0.00 in
04:42 -4.3 °F -8.0 °F 30.48 in WNW 3.0 mph 3.0 mph 83 % 0.00 in
04:57 -4.1 °F -8.0 °F 30.48 in WNW 2.0 mph 3.0 mph 83 % 0.00 in
05:12 -4.1 °F -8.0 °F 30.48 in Calm   3.0 mph 83 % 0.00 in
05:27 -4.2 °F -8.0 °F 30.47 in Calm   1.0 mph 83 % 0.00 in
05:42 -4.1 °F -8.0 °F 30.48 in Calm     83 % 0.00 in
05:57 -4.1 °F -8.0 °F 30.46 in Calm   2.0 mph 83 % 0.00 in
06:12 -3.9 °F -8.0 °F 30.48 in WNW 1.0 mph 2.0 mph 83 % 0.00 in
06:27 -3.7 °F -7.0 °F 30.47 in Calm     84 % 0.00 in
06:42 -3.2 °F -7.0 °F 30.48 in Calm   3.0 mph 84 % 0.00 in
07:12 -2.2 °F -6.0 °F 30.48 in Calm   2.0 mph 84 % 0.00 in
07:28 -1.8 °F -6.0 °F 30.48 in Calm   3.0 mph 84 % 0.00 in
07:43 -1.6 °F -6.0 °F 30.50 in WNW 1.0 mph 3.0 mph 83 % 0.00 in
07:58 -1.4 °F -5.0 °F 30.50 in North 3.0 mph 4.0 mph 83 % 0.00 in
08:13 -1.4 °F -6.0 °F 30.50 in Calm   3.0 mph 82 % 0.00 in
08:28 -1.2 °F -5.0 °F 30.49 in Calm   3.0 mph 82 % 0.00 in
08:43 -0.8 °F -5.0 °F 30.49 in Calm     82 % 0.00 in
08:58 -0.1 °F -4.0 °F 30.50 in Calm   1.0 mph 82 % 0.00 in
09:13 0.9 °F -3.0 °F 30.50 in North 1.0 mph 1.0 mph 82 % 0.00 in
09:28 1.8 °F -3.0 °F 30.51 in Calm   1.0 mph 82 % 0.00 in
09:43 2.6 °F -2.0 °F 30.50 in Calm   3.0 mph 81 % 0.00 in
09:58 3.4 °F -2.0 °F 30.51 in Calm     77 % 0.00 in
10:28 5.1 °F -2.0 °F 30.50 in Calm     73 % 0.00 in
10:44 6.2 °F -1.0 °F 30.50 in Calm   2.0 mph 73 % 0.00 in
10:59 6.0 °F -1.0 °F 30.50 in Calm   2.0 mph 72 % 0.00 in
11:14 6.2 °F -2.0 °F 30.49 in Calm   2.0 mph 69 % 0.00 in
11:29 6.6 °F -2.0 °F 30.48 in Calm   3.0 mph 69 % 0.00 in
11:44 8.2 °F 0.0 °F 30.47 in North 2.0 mph 3.0 mph 68 % 0.00 in
11:59 8.9 °F 0.0 °F 30.47 in Calm   2.0 mph 67 % 0.00 in
12:14 8.8 °F -1.0 °F 30.46 in Calm   2.0 mph 64 % 0.00 in
12:29 9.0 °F -1.0 °F 30.46 in Calm   1.0 mph 64 % 0.00 in
12:44 9.7 °F 0.0 °F 30.46 in Calm   3.0 mph 65 % 0.00 in
12:59 10.1 °F 0.0 °F 30.46 in Calm   2.0 mph 64 % 0.00 in
13:14 10.3 °F 0.0 °F 30.45 in Calm   4.0 mph 63 % 0.00 in
13:29 10.7 °F 0.0 °F 30.45 in Calm   2.0 mph 63 % 0.00 in
13:44 10.7 °F 0.0 °F 30.45 in Calm   2.0 mph 63 % 0.00 in
13:59 11.2 °F 1.0 °F 30.45 in Calm   2.0 mph 63 % 0.00 in
14:15 11.1 °F 1.0 °F 30.44 in Calm   2.0 mph 64 % 0.00 in
14:30 11.1 °F 1.0 °F 30.44 in Calm   2.0 mph 63 % 0.00 in
14:45 11.0 °F 1.0 °F 30.44 in Calm   1.0 mph 64 % 0.00 in
15:15 11.8 °F 1.0 °F 30.44 in Calm   2.0 mph 62 % 0.00 in
15:30 11.4 °F 1.0 °F 30.43 in Calm   1.0 mph 64 % 0.00 in
15:45 11.4 °F 2.0 °F 30.43 in Calm   2.0 mph 65 % 0.00 in
16:00 11.4 °F 2.0 °F 30.43 in Calm   2.0 mph 65 % 0.00 in
16:15 11.2 °F 2.0 °F 30.42 in Calm   1.0 mph 65 % 0.00 in
16:30 10.9 °F 1.0 °F 30.42 in Calm     65 % 0.00 in
16:45 10.8 °F 1.0 °F 30.41 in Calm   2.0 mph 66 % 0.00 in
17:00 10.6 °F 1.0 °F 30.41 in Calm   1.0 mph 66 % 0.00 in
17:15 10.6 °F 2.0 °F 30.42 in Calm   1.0 mph 67 % 0.00 in
17:30 10.6 °F 2.0 °F 30.41 in Calm   2.0 mph 67 % 0.00 in
17:46 10.5 °F 2.0 °F 30.41 in Calm   1.0 mph 67 % 0.00 in
18:01 10.4 °F 1.0 °F 30.42 in Calm   1.0 mph 67 % 0.00 in
18:16 10.4 °F 2.0 °F 30.42 in Calm   2.0 mph 68 % 0.00 in
18:46 10.3 °F 2.0 °F 30.42 in Calm   2.0 mph 68 % 0.00 in
19:16 10.3 °F 2.0 °F 30.42 in North 2.0 mph 2.0 mph 68 % 0.00 in
19:31 10.2 °F 2.0 °F 30.41 in Calm   2.0 mph 68 % 0.00 in
20:01 10.2 °F 2.0 °F 30.42 in Calm   2.0 mph 69 % 0.00 in
20:16 10.2 °F 2.0 °F 30.43 in Calm   1.0 mph 69 % 0.00 in
20:31 10.2 °F 2.0 °F 30.42 in Calm   4.0 mph 70 % 0.00 in
20:47 10.1 °F 2.0 °F 30.42 in Calm   3.0 mph 70 % 0.00 in
21:02 9.9 °F 3.0 °F 30.42 in Calm   4.0 mph 72 % 0.00 in
21:17 9.7 °F 3.0 °F 30.42 in Calm   4.0 mph 73 % 0.00 in
21:32 9.6 °F 3.0 °F 30.43 in Calm   2.0 mph 73 % 0.00 in
21:47 9.6 °F 3.0 °F 30.43 in Calm   1.0 mph 73 % 0.00 in
22:02 9.6 °F 3.0 °F 30.44 in Calm   3.0 mph 73 % 0.00 in
22:17 9.6 °F 3.0 °F 30.44 in Calm     73 % 0.00 in
22:32 9.6 °F 3.0 °F 30.45 in Calm     73 % 0.00 in
22:47 9.7 °F 3.0 °F 30.44 in Calm   2.0 mph 73 % 0.00 in
23:02 9.8 °F 3.0 °F 30.44 in West 3.0 mph 4.0 mph 73 % 0.00 in
23:17 9.8 °F 3.0 °F 30.43 in NE 1.0 mph 4.0 mph 74 % 0.00 in
23:32 9.6 °F 3.0 °F 30.44 in ENE 1.0 mph 5.0 mph 74 % 0.00 in
23:47 9.5 °F 3.0 °F 30.44 in Calm   3.0 mph 74 % 0.00 in
Des Moines Weather and Climate
Compliments of Weather Underground - 2.75 mb

Script developed by  Jim McMurry - jmcmurry@mwt.net Adapted for the template by  Wim van der Kuil - Leuven-Template.eu

You find our weather info also at:

Weather Underground

Equipment we use:

Weather-station
Davis VP2 Plus

Weather-program
Davis Weatherlink.Com

Weather-server
iMac (Retina 4K, 21.5-inch, Late 2015)

Provider
Hostmonster.com

Davis VP2 Plus

Davis Weatherlink.Com

iMac (Retina 4K, 21.5-inch, Late 2015)

Hostmonster.com